createdAt,value
2023-02-05T00:00:49.867Z,89.54
2023-02-05T00:03:16.462Z,89.41
2023-02-05T00:05:43.292Z,87.70
2023-02-05T00:08:09.890Z,88.30
2023-02-05T00:10:36.533Z,87.82
2023-02-05T00:13:03.168Z,88.56
2023-02-05T00:15:29.738Z,87.75
2023-02-05T00:17:56.292Z,87.79
2023-02-05T00:20:22.851Z,87.42
2023-02-05T00:22:49.417Z,87.84
2023-02-05T00:25:15.989Z,88.20
2023-02-05T00:27:42.591Z,87.92
2023-02-05T00:30:09.889Z,87.87
2023-02-05T00:32:37.369Z,87.68
2023-02-05T00:35:04.160Z,87.35
2023-02-05T00:40:16.520Z,87.07
2023-02-05T00:42:43.033Z,87.46
2023-02-05T00:45:09.957Z,87.72
2023-02-05T00:47:36.488Z,87.59
2023-02-05T00:50:03.345Z,88.69
2023-02-05T00:52:29.989Z,87.51
2023-02-05T00:54:56.598Z,87.52
2023-02-05T00:57:24.820Z,87.32
2023-02-05T00:59:52.500Z,87.04
2023-02-05T01:02:25.278Z,87.04
2023-02-05T01:04:52.458Z,86.84
2023-02-05T01:07:20.338Z,87.32
2023-02-05T01:09:46.887Z,87.46
2023-02-05T01:12:14.441Z,87.34
2023-02-05T01:14:42.792Z,87.02
2023-02-05T01:17:09.558Z,87.11
2023-02-05T01:19:37.109Z,86.73
2023-02-05T01:22:04.854Z,86.57
2023-02-05T01:24:31.845Z,86.20
2023-02-05T01:26:58.901Z,86.07
2023-02-05T01:29:28.403Z,86.45
2023-02-05T01:34:33.649Z,86.73
2023-02-05T01:37:00.238Z,86.88
2023-02-05T01:39:26.785Z,87.43
2023-02-05T01:41:53.329Z,86.59
2023-02-05T01:44:25.232Z,86.76
2023-02-05T01:46:54.369Z,87.27
2023-02-05T01:49:28.397Z,86.66
2023-02-05T01:51:58.551Z,86.76
2023-02-05T02:02:26.942Z,86.08
2023-02-05T02:04:58.349Z,86.52
2023-02-05T02:07:25.282Z,85.96
2023-02-05T02:09:53.628Z,85.84
2023-02-05T02:12:25.225Z,86.32
2023-02-05T02:14:55.705Z,86.15
2023-02-05T02:17:23.609Z,86.38
2023-02-05T02:20:04.284Z,86.31
2023-02-05T02:22:55.322Z,86.89
2023-02-05T02:25:30.260Z,87.38
2023-02-05T02:28:02.938Z,86.68
2023-02-05T02:30:44.145Z,86.43
2023-02-05T02:33:27.536Z,87.03
2023-02-05T02:36:02.532Z,86.28
2023-02-05T02:38:49.357Z,85.74
2023-02-05T02:41:25.329Z,85.80
2023-02-05T02:44:11.775Z,84.86
2023-02-05T02:46:43.192Z,86.43
2023-02-05T02:49:16.978Z,86.37
2023-02-05T02:51:45.010Z,85.96
2023-02-05T02:54:16.754Z,86.06
2023-02-05T02:56:45.151Z,85.91
2023-02-05T02:59:18.472Z,86.66
2023-02-05T03:01:53.933Z,87.00
2023-02-05T03:04:45.402Z,86.77
2023-02-05T03:07:18.921Z,87.25
2023-02-05T03:10:00.546Z,86.49
2023-02-05T03:15:05.848Z,84.98
2023-02-05T03:17:32.619Z,85.04
2023-02-05T03:20:29.863Z,84.79
2023-02-05T03:22:56.933Z,83.79
2023-02-05T03:25:26.866Z,84.28
2023-02-05T03:27:54.587Z,83.63
2023-02-05T03:30:22.591Z,83.84
2023-02-05T03:33:01.162Z,84.05
2023-02-05T03:35:34.059Z,83.48
2023-02-05T03:38:14.120Z,83.94
2023-02-05T03:40:46.615Z,84.17
2023-02-05T03:43:50.373Z,84.37
2023-02-05T03:46:31.261Z,84.86
2023-02-05T03:49:16.191Z,85.47
2023-02-05T03:52:07.885Z,85.95
2023-02-05T03:55:19.125Z,86.09
2023-02-05T03:57:59.216Z,85.98
2023-02-05T04:00:27.005Z,86.39
2023-02-05T04:02:53.830Z,86.09
2023-02-05T04:07:54.971Z,87.37
2023-02-05T04:10:21.520Z,88.30
2023-02-05T04:12:48.058Z,87.72
2023-02-05T04:15:14.915Z,88.09
2023-02-05T04:20:14.498Z,88.08
2023-02-05T04:22:41.065Z,88.35
2023-02-05T04:25:07.782Z,88.03
2023-02-05T04:27:34.348Z,87.44
2023-02-05T04:30:00.904Z,87.91
2023-02-05T04:35:06.744Z,88.09
2023-02-05T04:37:33.295Z,88.05
2023-02-05T04:39:59.907Z,88.08
2023-02-05T04:42:26.449Z,88.56
2023-02-05T04:44:54.347Z,88.85
2023-02-05T04:47:20.927Z,89.00
2023-02-05T04:49:47.420Z,88.21
2023-02-05T04:52:13.924Z,88.29
2023-02-05T04:54:40.465Z,88.01
2023-02-05T04:57:06.955Z,88.77
2023-02-05T04:59:33.530Z,89.53
2023-02-05T05:02:00.367Z,88.88
2023-02-05T05:04:27.051Z,88.16
2023-02-05T05:06:53.587Z,88.31
2023-02-05T05:11:57.840Z,87.70
2023-02-05T05:14:24.537Z,87.51
2023-02-05T05:16:51.039Z,87.37
2023-02-05T05:19:17.531Z,86.88
2023-02-05T05:21:44.198Z,87.08
2023-02-05T05:24:10.702Z,87.82
2023-02-05T05:26:39.340Z,87.53
2023-02-05T05:29:06.348Z,87.29
2023-02-05T05:34:11.235Z,87.03
2023-02-05T05:36:40.065Z,87.48
2023-02-05T05:39:25.327Z,87.82
2023-02-05T05:42:10.432Z,87.37
2023-02-05T05:44:36.943Z,87.88
2023-02-05T05:47:03.891Z,87.94
2023-02-05T05:49:30.435Z,87.53
2023-02-05T05:51:56.933Z,87.78
2023-02-05T05:54:23.473Z,88.46
2023-02-05T05:56:50.042Z,87.92
2023-02-05T05:59:16.906Z,87.74
2023-02-05T06:01:43.523Z,87.40
2023-02-05T06:04:10.086Z,88.18
2023-02-05T06:06:36.712Z,87.88
2023-02-05T06:09:03.305Z,87.94
2023-02-05T06:11:29.823Z,88.25
2023-02-05T06:13:56.357Z,87.85
2023-02-05T06:16:22.895Z,88.37
2023-02-05T06:21:26.991Z,89.06
2023-02-05T06:23:53.546Z,89.30
2023-02-05T06:26:20.036Z,89.53
2023-02-05T06:28:46.566Z,89.11
2023-02-05T06:31:13.166Z,89.48
2023-02-05T06:33:40.013Z,89.03
2023-02-05T06:36:07.071Z,88.76
2023-02-05T06:38:33.586Z,88.79
2023-02-05T06:41:00.161Z,88.62
2023-02-05T06:43:27.080Z,88.85
2023-02-05T06:45:53.753Z,88.27
2023-02-05T06:48:20.262Z,88.18
2023-02-05T06:50:46.780Z,87.31
2023-02-05T06:53:13.467Z,87.94
2023-02-05T06:58:18.625Z,87.24
2023-02-05T07:00:45.282Z,87.67
2023-02-05T07:03:11.910Z,87.97
2023-02-05T07:05:38.400Z,87.77
2023-02-05T07:08:06.847Z,88.14
2023-02-05T07:10:33.584Z,88.31
2023-02-05T07:13:00.114Z,88.14
2023-02-05T07:15:26.625Z,88.21
2023-02-05T07:17:53.158Z,87.87
2023-02-05T07:20:19.898Z,87.85
2023-02-05T07:22:47.308Z,88.27
2023-02-05T07:25:13.996Z,88.20
2023-02-05T07:27:40.631Z,88.43
2023-02-05T07:30:07.738Z,87.82
2023-02-05T07:32:34.255Z,88.13
2023-02-05T07:35:00.901Z,87.23
2023-02-05T07:37:27.454Z,86.12
2023-02-05T07:39:53.986Z,86.30
2023-02-05T07:42:20.603Z,87.13
2023-02-05T07:44:47.410Z,86.84
2023-02-05T07:47:13.933Z,87.23
2023-02-05T07:49:40.428Z,86.65
2023-02-05T07:52:07.026Z,86.91
2023-02-05T07:54:33.672Z,86.70
2023-02-05T07:57:01.922Z,86.64
2023-02-05T07:59:28.590Z,86.99
2023-02-05T08:01:55.232Z,87.47
2023-02-05T08:04:21.767Z,87.44
2023-02-05T08:06:48.268Z,87.61
2023-02-05T08:09:14.826Z,88.04
2023-02-05T08:11:41.386Z,87.69
2023-02-05T08:14:08.083Z,88.04
2023-02-05T08:16:34.875Z,88.15
2023-02-05T08:19:01.393Z,88.61
2023-02-05T08:21:27.955Z,88.12
2023-02-05T08:23:57.567Z,88.25
2023-02-05T08:26:24.314Z,88.50
2023-02-05T08:28:50.817Z,87.99
2023-02-05T08:31:19.436Z,88.23
2023-02-05T08:33:47.854Z,88.50
2023-02-05T08:36:14.453Z,89.00
2023-02-05T08:38:41.020Z,87.75
2023-02-05T08:41:12.799Z,87.75
2023-02-05T08:43:47.559Z,88.60
2023-02-05T08:48:59.238Z,87.83
2023-02-05T08:51:25.803Z,88.42
2023-02-05T08:53:53.592Z,88.33
2023-02-05T08:56:20.499Z,88.75
2023-02-05T09:01:20.675Z,87.90
2023-02-05T09:03:48.018Z,88.40
2023-02-05T09:06:16.521Z,88.93
2023-02-05T09:08:43.586Z,88.56
2023-02-05T09:13:41.481Z,89.13
2023-02-05T09:16:11.330Z,88.74
2023-02-05T09:21:16.562Z,88.52
2023-02-05T09:23:43.080Z,88.63
2023-02-05T09:26:09.695Z,88.01
2023-02-05T09:31:16.204Z,88.86
2023-02-05T09:33:45.456Z,90.17
2023-02-05T09:36:18.974Z,100.00
2023-02-05T09:38:45.976Z,89.67
2023-02-05T09:41:12.566Z,83.39
2023-02-05T09:43:39.194Z,84.80
2023-02-05T09:46:14.554Z,85.46
2023-02-05T09:51:25.778Z,89.71
2023-02-05T09:56:28.565Z,91.15
2023-02-05T10:01:45.325Z,93.58
2023-02-05T10:10:05.015Z,92.27
2023-02-05T10:13:13.454Z,94.20
2023-02-05T10:15:51.719Z,96.05
2023-02-05T10:18:24.173Z,96.43
2023-02-05T10:21:00.934Z,97.59
2023-02-05T10:23:43.182Z,97.98
2023-02-05T10:26:14.014Z,98.71
2023-02-05T10:28:47.028Z,99.18
2023-02-05T10:31:16.413Z,99.14
2023-02-05T10:33:50.325Z,99.63
2023-02-05T10:36:22.015Z,100.00
2023-02-05T10:38:51.066Z,100.00
2023-02-05T10:41:52.881Z,100.00
2023-02-05T10:44:22.224Z,100.00
2023-02-05T10:46:55.252Z,100.00
2023-02-05T10:49:44.382Z,100.00
2023-02-05T10:52:12.994Z,100.00
2023-02-05T10:54:40.609Z,100.00
2023-02-05T10:57:13.766Z,100.00
2023-02-05T11:02:39.282Z,100.00
2023-02-05T11:07:58.783Z,100.00
2023-02-05T11:10:28.522Z,100.00
2023-02-05T11:13:01.750Z,100.00
2023-02-05T11:15:31.045Z,100.00
2023-02-05T11:18:04.987Z,100.00
2023-02-05T11:20:40.561Z,100.00
2023-02-05T11:23:21.220Z,100.00
2023-02-05T11:26:06.979Z,100.00
2023-02-05T11:28:39.903Z,100.00
2023-02-05T11:31:27.175Z,100.00
2023-02-05T11:34:08.941Z,100.00
2023-02-05T11:36:47.673Z,100.00
2023-02-05T11:39:27.636Z,100.00
2023-02-05T11:41:56.759Z,100.00
2023-02-05T11:47:09.652Z,100.00
2023-02-05T11:52:13.887Z,99.92
2023-02-05T11:54:46.229Z,100.00
2023-02-05T12:00:18.122Z,100.00
2023-02-05T12:02:44.818Z,100.00
2023-02-05T12:05:13.998Z,100.00
2023-02-05T12:07:58.722Z,100.00
2023-02-05T12:10:32.869Z,100.00
2023-02-05T12:13:03.300Z,99.60
2023-02-05T12:15:41.869Z,100.00
2023-02-05T12:18:29.583Z,100.00
2023-02-05T12:21:15.674Z,100.00
2023-02-05T12:23:57.447Z,99.92
2023-02-05T12:26:45.368Z,100.00
2023-02-05T12:29:22.875Z,100.00
2023-02-05T12:31:59.164Z,100.00
2023-02-05T12:35:04.689Z,100.00
2023-02-05T12:43:40.292Z,100.00
2023-02-05T12:46:32.358Z,100.00
2023-02-05T12:49:15.727Z,100.00
2023-02-05T12:51:54.109Z,100.00
2023-02-05T12:54:46.350Z,100.00
2023-02-05T12:57:20.587Z,100.00
2023-02-05T12:59:55.048Z,100.00
2023-02-05T13:02:36.803Z,98.87
2023-02-05T13:05:34.008Z,95.71
2023-02-05T13:08:31.024Z,98.41
2023-02-05T13:11:07.060Z,99.23
2023-02-05T13:13:48.167Z,100.00
2023-02-05T13:19:10.004Z,100.00
2023-02-05T13:21:55.361Z,100.00
2023-02-05T13:25:06.199Z,100.00
2023-02-05T13:27:56.904Z,100.00
2023-02-05T13:33:08.338Z,100.00
2023-02-05T13:35:49.638Z,100.00
2023-02-05T13:38:55.098Z,100.00
2023-02-05T13:41:47.133Z,100.00
2023-02-05T13:44:28.752Z,100.00
2023-02-05T13:47:07.219Z,100.00
2023-02-05T13:49:50.878Z,100.00
2023-02-05T13:52:20.182Z,98.67
2023-02-05T13:55:16.406Z,99.81
2023-02-05T13:58:10.817Z,98.81
2023-02-05T14:00:40.441Z,99.99
2023-02-05T14:03:09.883Z,100.00
2023-02-05T14:08:29.658Z,100.00
2023-02-05T14:11:02.490Z,100.00
2023-02-05T14:13:34.653Z,100.00
2023-02-05T14:16:32.926Z,100.00
2023-02-05T14:18:59.389Z,100.00
2023-02-05T14:21:31.718Z,100.00
2023-02-05T14:24:03.262Z,100.00
2023-02-05T14:26:49.245Z,100.00
2023-02-05T14:29:45.021Z,100.00
2023-02-05T14:32:12.586Z,100.00
2023-02-05T14:34:39.082Z,100.00
2023-02-05T14:37:05.863Z,100.00
2023-02-05T14:39:34.198Z,100.00
2023-02-05T14:42:05.474Z,100.00
2023-02-05T14:44:34.880Z,100.00
2023-02-05T14:47:04.153Z,100.00
2023-02-05T14:49:33.553Z,100.00
2023-02-05T14:52:27.032Z,100.00
2023-02-05T14:55:01.081Z,100.00
2023-02-05T14:57:39.136Z,100.00
2023-02-05T15:00:21.840Z,100.00
2023-02-05T15:02:55.758Z,100.00
2023-02-05T15:05:41.558Z,100.00
2023-02-05T15:11:12.066Z,100.00
2023-02-05T15:13:38.849Z,100.00
2023-02-05T15:16:11.127Z,100.00
2023-02-05T15:18:58.713Z,100.00
2023-02-05T15:21:33.537Z,100.00
2023-02-05T15:24:22.349Z,100.00
2023-02-05T15:27:05.902Z,100.00
2023-02-05T15:29:43.734Z,100.00
2023-02-05T15:35:12.677Z,100.00
2023-02-05T15:37:46.176Z,100.00
2023-02-05T15:40:20.155Z,100.00
2023-02-05T15:42:53.275Z,100.00
2023-02-05T15:45:27.314Z,100.00
2023-02-05T15:48:11.556Z,100.00
2023-02-05T15:50:47.579Z,100.00
2023-02-05T15:53:33.132Z,100.00
2023-02-05T15:56:25.020Z,100.00
2023-02-05T15:58:55.117Z,100.00
2023-02-05T16:01:24.400Z,100.00
2023-02-05T16:03:51.104Z,100.00
2023-02-05T16:06:20.086Z,100.00
2023-02-05T16:08:48.825Z,100.00
2023-02-05T16:11:33.541Z,100.00
2023-02-05T16:14:05.513Z,100.00
2023-02-05T16:16:34.982Z,100.00
2023-02-05T16:19:06.120Z,100.00
2023-02-05T16:21:46.054Z,100.00
2023-02-05T16:24:27.196Z,100.00
2023-02-05T16:27:11.571Z,100.00
2023-02-05T16:29:47.965Z,100.00
2023-02-05T16:35:33.980Z,100.00
2023-02-05T16:38:02.236Z,100.00
2023-02-05T16:40:55.096Z,100.00
2023-02-05T16:43:35.539Z,100.00
2023-02-05T16:46:07.842Z,100.00
2023-02-05T16:48:41.794Z,100.00
2023-02-05T16:51:35.468Z,100.00
2023-02-05T16:54:11.165Z,100.00
2023-02-05T16:56:47.506Z,100.00
2023-02-05T17:01:59.744Z,100.00
2023-02-05T17:04:35.762Z,100.00
2023-02-05T17:07:04.464Z,100.00
2023-02-05T17:09:36.832Z,100.00
2023-02-05T17:12:21.644Z,100.00
2023-02-05T17:15:04.776Z,100.00
2023-02-05T17:17:31.992Z,100.00
2023-02-05T17:20:05.828Z,100.00
2023-02-05T17:22:34.560Z,100.00
2023-02-05T17:25:02.218Z,100.00
2023-02-05T17:27:36.475Z,100.00
2023-02-05T17:30:05.400Z,100.00
2023-02-05T17:32:32.828Z,100.00
2023-02-05T17:35:00.554Z,100.00
2023-02-05T17:37:27.294Z,100.00
2023-02-05T17:39:55.647Z,100.00
2023-02-05T17:42:24.611Z,100.00
2023-02-05T17:44:51.868Z,100.00
2023-02-05T17:47:19.089Z,100.00
2023-02-05T17:49:46.127Z,100.00
2023-02-05T17:52:12.745Z,100.00
2023-02-05T17:54:39.925Z,100.00
2023-02-05T17:57:20.710Z,100.00
2023-02-05T17:59:48.222Z,100.00
2023-02-05T18:02:16.011Z,100.00
2023-02-05T18:04:44.845Z,100.00
2023-02-05T18:07:26.769Z,100.00
2023-02-05T18:09:53.304Z,100.00
2023-02-05T18:12:19.814Z,100.00
2023-02-05T18:17:20.191Z,100.00
2023-02-05T18:19:46.744Z,100.00
2023-02-05T18:22:13.558Z,100.00
2023-02-05T18:24:40.303Z,100.00
2023-02-05T18:27:12.130Z,100.00
2023-02-05T18:29:39.824Z,100.00
2023-02-05T18:32:07.451Z,100.00
2023-02-05T18:37:08.077Z,100.00
2023-02-05T18:39:34.610Z,100.00
2023-02-05T18:42:01.499Z,100.00
2023-02-05T18:44:28.280Z,100.00
2023-02-05T18:46:54.807Z,100.00
2023-02-05T18:49:21.376Z,100.00
2023-02-05T18:51:47.976Z,100.00
2023-02-05T18:54:14.637Z,100.00
2023-02-05T18:56:41.206Z,100.00
2023-02-05T18:59:09.722Z,100.00
2023-02-05T19:01:38.539Z,100.00
2023-02-05T19:04:14.622Z,100.00
2023-02-05T19:06:42.683Z,100.00
2023-02-05T19:09:09.352Z,100.00
2023-02-05T19:11:40.991Z,100.00
2023-02-05T19:14:11.433Z,100.00
2023-02-05T19:16:39.602Z,100.00
2023-02-05T19:19:07.176Z,100.00
2023-02-05T19:21:34.675Z,100.00
2023-02-05T19:24:05.677Z,100.00
2023-02-05T19:26:33.655Z,100.00
2023-02-05T19:29:03.293Z,100.00
2023-02-05T19:31:33.369Z,100.00
2023-02-05T19:34:00.998Z,100.00
2023-02-05T19:36:29.132Z,100.00
2023-02-05T19:38:56.528Z,100.00
2023-02-05T19:41:26.476Z,100.00
2023-02-05T19:43:56.518Z,100.00
2023-02-05T19:46:25.733Z,100.00
2023-02-05T19:48:53.301Z,100.00
2023-02-05T19:51:20.470Z,100.00
2023-02-05T19:53:47.603Z,100.00
2023-02-05T19:56:19.994Z,100.00
2023-02-05T19:58:49.182Z,100.00
2023-02-05T20:04:12.389Z,100.00
2023-02-05T20:06:39.688Z,100.00
2023-02-05T20:11:45.344Z,100.00
2023-02-05T20:14:12.377Z,100.00
2023-02-05T20:16:42.369Z,100.00
2023-02-05T20:19:12.807Z,100.00
2023-02-05T20:21:39.632Z,100.00
2023-02-05T20:24:07.497Z,100.00
2023-02-05T20:26:35.360Z,100.00
2023-02-05T20:29:20.622Z,100.00
2023-02-05T20:31:49.615Z,100.00
2023-02-05T20:37:02.387Z,100.00
2023-02-05T20:39:29.756Z,100.00
2023-02-05T20:41:58.279Z,100.00
2023-02-05T20:44:26.376Z,100.00
2023-02-05T20:46:53.121Z,100.00
2023-02-05T20:49:19.815Z,100.00
2023-02-05T20:51:47.102Z,100.00
2023-02-05T20:54:13.783Z,100.00
2023-02-05T20:56:40.328Z,100.00
2023-02-05T20:59:09.321Z,100.00
2023-02-05T21:01:37.454Z,100.00
2023-02-05T21:04:05.632Z,100.00
2023-02-05T21:06:34.966Z,100.00
2023-02-05T21:09:02.016Z,100.00
2023-02-05T21:14:08.147Z,100.00
2023-02-05T21:16:36.421Z,100.00
2023-02-05T21:19:05.733Z,100.00
2023-02-05T21:21:35.508Z,100.00
2023-02-05T21:24:04.975Z,100.00
2023-02-05T21:26:38.070Z,100.00
2023-02-05T21:29:07.759Z,100.00
2023-02-05T21:31:39.501Z,100.00
2023-02-05T21:34:09.097Z,100.00
2023-02-05T21:36:35.698Z,100.00
2023-02-05T21:39:02.392Z,100.00
2023-02-05T21:41:29.030Z,100.00
2023-02-05T21:43:59.030Z,100.00
2023-02-05T21:46:27.587Z,100.00
2023-02-05T21:48:55.824Z,100.00
2023-02-05T21:51:24.539Z,100.00
2023-02-05T21:53:59.435Z,100.00
2023-02-05T21:56:29.325Z,100.00
2023-02-05T21:58:56.247Z,100.00
2023-02-05T22:01:27.931Z,100.00
2023-02-05T22:03:57.545Z,100.00
2023-02-05T22:06:26.430Z,100.00
2023-02-05T22:08:53.202Z,100.00
2023-02-05T22:11:21.658Z,100.00
2023-02-05T22:13:50.697Z,100.00
2023-02-05T22:16:19.012Z,100.00
2023-02-05T22:18:46.073Z,100.00
2023-02-05T22:21:18.673Z,100.00
2023-02-05T22:23:50.828Z,100.00
2023-02-05T22:26:23.284Z,100.00
2023-02-05T22:28:50.708Z,100.00
2023-02-05T22:31:20.427Z,100.00
2023-02-05T22:33:48.870Z,100.00
2023-02-05T22:36:17.933Z,100.00
2023-02-05T22:38:44.684Z,100.00
2023-02-05T22:41:15.440Z,100.00
2023-02-05T22:43:42.379Z,100.00
2023-02-05T22:46:12.018Z,100.00
2023-02-05T22:48:40.570Z,100.00
2023-02-05T22:51:11.123Z,100.00
2023-02-05T22:53:37.692Z,100.00
2023-02-05T22:56:06.893Z,100.00
2023-02-05T22:58:34.510Z,100.00
2023-02-05T23:01:09.667Z,100.00
2023-02-05T23:03:36.948Z,100.00
2023-02-05T23:06:16.767Z,100.00
2023-02-05T23:08:44.288Z,100.00
2023-02-05T23:13:50.368Z,100.00
2023-02-05T23:16:21.918Z,100.00
2023-02-05T23:18:49.421Z,100.00
2023-02-05T23:21:19.688Z,100.00
2023-02-05T23:23:46.423Z,100.00
2023-02-05T23:26:19.129Z,100.00
2023-02-05T23:28:46.414Z,100.00
2023-02-05T23:31:13.165Z,100.00
2023-02-05T23:33:39.894Z,100.00
2023-02-05T23:36:07.740Z,100.00
2023-02-05T23:38:34.907Z,100.00
2023-02-05T23:41:01.815Z,100.00
2023-02-05T23:43:28.487Z,100.00
2023-02-05T23:45:55.155Z,100.00
2023-02-05T23:48:21.705Z,100.00
2023-02-05T23:50:55.190Z,100.00
2023-02-05T23:53:21.715Z,100.00
2023-02-05T23:55:50.136Z,100.00
2023-02-05T23:58:18.273Z,100.00
